Reserve, Indiana
Current Conditions -  °F | °C
As of 7:15 AM on Saturday 25 Oct 2014 (Local Time) from KPRG Reporting Station
Clear Clear  
Wind Chill: 54°   Ceiling: Unl
Heat Index: 54°   Visibility: 10mi
Dew Point: 53°   Wind: 5mph
Humidity: 94%   Direction: 260°W
Pressure: 29.98"   Gusts: NA
Location:  39.8207°N, 87.3335°W
Report Text: KPRG 251115Z AUTO 26004KT 10SM CLR 12/12 A2998 RMK AO2 T01240115
Loading
Personal Weather Stations






























Interactive Weather Map
Tropical Storm Tracking
New forecast layout! Learn more

10-Day Weather Forecast

Advertisements
Track Severe Weather on mobile